Saint Petersburg, FL

7:11 AM EDT on September 17, 2014 (GMT -0400)
Municipal Marina | Change Station
CLOSE
Current Station
Personal Weather Station
Location: St. Petersburg, FL
Elevation: 0 ft
Nearby Weather Stations

Elev 0 ft 27.77 °N, 82.63 °W | Updated 3 minutes ago

Light Rain
Light Rain
74.5 °F
Feels Like 72 °F
N
-
Wind Variable Wind from North

Today
High -- | Low -- °F
--% Chance of Precip.
Yesterday
High -- | Low -- °F
Precip. -- in
7:16 AM 7:32 PM
Last Quarter, 37% visible
Pressure 29.94 in
Visibility 10.0 miles
Clouds Few 6000 ft
Mostly Cloudy 8500 ft
Overcast 11000 ft
Heat Index 72 °F
Dew Point 73 °F
Humidity 96%
Rainfall -999.00 in
Snow Depth Not available.
UV 0 out of 12
Pollen 6.70 out of 12
Air Quality Not available.
Flu Activity Not available.
METAR KSPG 171053Z 22006KT 10SM -RA FEW060 BKN085 OVC110 24/22 A2993 RMK AO2 SLP136 P0008 T02440222 $

More Conditions Fewer Conditions

Pressure 29.94 in
Visibility 10.0 miles
Clouds Few 6000 ft
Mostly Cloudy 8500 ft
Overcast 11000 ft
Heat Index 72 °F
Dew Point 73 °F
Humidity 96%
Rainfall -999.00 in
Snow Depth Not available.
UV 0 out of 12
Pollen 6.70 out of 12
Air Quality Not available.
Flu Activity Not available.
METAR KSPG 171053Z 22006KT 10SM -RA FEW060 BKN085 OVC110 24/22 A2993 RMK AO2 SLP136 P0008 T02440222 $

More Conditions Fewer Conditions

10-Day Weather Forecast

Almanac

Astronomy

Sep. 17, 2014 Rise Set
Actual Time 7:16 AM EDT 7:32 PM EDT
Civil Twilight 6:53 AM EDT 7:56 PM EDT
Nautical Twilight 6:25 AM EDT 8:23 PM EDT
Astronomical Twilight 5:58 AM EDT 8:51 PM EDT
Moon 1:37 AM EDT 3:21 PM EDT
Length of Visible Light 13h 02m
Length of Day
12h 16m
Tomorrow will be 1m 39s shorter.
Last Quarter, 37% of the Moon is Illuminated
Today
Last Quarter
Sep 24
New
Oct 1
First Quarter
Oct 8
Full
Oct 15
Last Quarter

Today's Extremes

State Highs State Lows

Community

WunderPhotos

Upload Photos

1,754,002 photos uploaded!

Nearby

Air Quality

  Air Quality AQ Index Pollutant
Wednesday Moderate
PM2.5
Wednesday Good
OZONE

Snow Depth

Station Depth Elevation
No new snow has been reported.

Earthquake Activity

City Distance Mag. Time & Date
No recent earthquake activity has been reported nearby.
Minimum magnitude displayed is 2.5.

Coastal Water Temperatures

Place Temperature
St Petersburg, FL 88.0 °F
Old Port Tampa, FL 84.0 °F

Nearby Weather Stations